Pagrindinis puslapis
METAR-TAF:

METAR-TAF

Oro uostai :

Kokola, Suomija

platuma: 63-43N, ilguma: 023-09E, Aukštis: 25 m

Dabartinis oras

Ataskaita buvo paskelbta 21 minutes, ne 12:20 UTC
Vėjas 12 kt iš Šiaurės, svyruoja nuo Šiaurės Vakarų ir Šiaurės
Temperatūra 23°C
Drėgmė 29%
Slėgis 1024 hPa
Matomumas 10 km arba daugiau
nėra debesų žemiau 1500 m ir nėra kamuolinių lietaus debesų

METAR: EFKK 011220Z AUTO 35012KT 310V010 CAVOK 23/04 Q1024

Laikas: 15:41 (12:41 UTC)


TAF: trūkstamas

Orai ataskaitas ir orų prognozės (METAR, TAF).

turimą stotys yra geltonos ir raudonos taškus žemėlapyje.

Perkelti pele per norėdami pamatyti stoties vardą.

Tada spustelėkite, norėdami matyti oro stebėjimo ir prognozės.

Norėdami pakeisti žemėlapį: spustelėkite ant žalios mygtukų su juodo kryžiaus žemyn,; žalią mygtuką su brūkšneliu, jei norite nutolinti; arba žalių rodyklių gretimoms žemėlapius.


METAR-TAF: